Time;durP1;ratioP1;P1;durP2;ratioP2;P2;SDS_P1;SDS_P2;PMS_P1;PMS_P2;Temp;Humidity;BMP_temperature;BMP_pressure;BME280_temperature;BME280_humidity;BME280_pressure;Samples;Min_cycle;Max_cycle;Signal;HPM_P1;HPM_P2
2023/12/05 00:00:11;;;;;;;7.18;6.65;;;0.10;99.90;;;;;;5063454;28;20213;-77
2023/12/05 00:02:38;;;;;;;6.85;6.35;;;0.00;99.90;;;;;;5062036;28;20391;-77
2023/12/05 00:05:06;;;;;;;6.88;6.40;;;0.00;99.90;;;;;;5061883;28;20210;-77
2023/12/05 00:07:35;;;;;;;6.95;6.38;;;-0.10;99.90;;;;;;5064334;28;20556;-76
2023/12/05 00:10:02;;;;;;;6.32;5.82;;;0.00;99.90;;;;;;5063797;28;20232;-76
2023/12/05 00:12:30;;;;;;;6.40;5.90;;;0.00;99.90;;;;;;5063595;28;20237;-77
2023/12/05 00:14:57;;;;;;;6.53;6.03;;;0.00;99.90;;;;;;5066845;28;20205;-76
2023/12/05 00:17:24;;;;;;;7.18;6.57;;;0.10;99.90;;;;;;5061615;28;20225;-76
2023/12/05 00:19:52;;;;;;;6.88;6.38;;;0.10;99.90;;;;;;5065028;28;20950;-76
2023/12/05 00:22:19;;;;;;;6.43;5.82;;;0.10;99.90;;;;;;5052669;28;20724;-77
2023/12/05 00:24:46;;;;;;;5.32;5.03;;;0.20;99.90;;;;;;5044875;28;20266;-76
2023/12/05 00:27:13;;;;;;;5.97;5.57;;;0.20;99.90;;;;;;5044253;28;20960;-76
2023/12/05 00:29:41;;;;;;;6.50;6.00;;;0.20;99.90;;;;;;5041477;28;20207;-79
2023/12/05 00:32:08;;;;;;;7.20;6.70;;;0.20;99.90;;;;;;5051659;28;20221;-76
2023/12/05 00:34:35;;;;;;;7.40;6.80;;;0.20;99.90;;;;;;5062832;28;20203;-77
2023/12/05 00:37:03;;;;;;;7.43;6.82;;;0.10;99.90;;;;;;5060632;28;20229;-77
2023/12/05 00:39:30;;;;;;;7.28;6.68;;;0.10;99.90;;;;;;5063760;28;20214;-78
2023/12/05 00:41:57;;;;;;;7.40;6.80;;;0.10;99.90;;;;;;5064616;28;20222;-77
2023/12/05 00:44:24;;;;;;;7.57;6.97;;;0.00;99.90;;;;;;5061665;28;20213;-76
2023/12/05 00:46:53;;;;;;;7.00;6.50;;;0.00;99.90;;;;;;5065198;28;20275;-77
2023/12/05 00:49:20;;;;;;;8.05;7.22;;;0.00;99.90;;;;;;5062497;28;20619;-76
2023/12/05 00:51:47;;;;;;;7.63;6.93;;;0.00;99.90;;;;;;5063942;28;20237;-76
2023/12/05 00:54:14;;;;;;;7.32;6.72;;;0.00;99.90;;;;;;5062140;28;20193;-77
2023/12/05 00:56:41;;;;;;;7.97;7.38;;;-0.10;99.90;;;;;;5066747;28;20221;-77
2023/12/05 00:59:08;;;;;;;7.63;6.97;;;-0.10;99.90;;;;;;5063383;28;20202;-76
2023/12/05 01:01:35;;;;;;;6.72;6.22;;;-0.10;99.90;;;;;;5060788;28;20217;-77
2023/12/05 01:04:04;;;;;;;7.75;7.05;;;-0.10;99.90;;;;;;5062660;28;20217;-76
2023/12/05 01:06:31;;;;;;;7.28;6.70;;;-0.10;99.90;;;;;;5063031;28;20699;-76
2023/12/05 01:08:58;;;;;;;7.28;6.68;;;0.00;99.90;;;;;;5059716;28;20684;-78
2023/12/05 01:11:25;;;;;;;7.15;6.65;;;0.00;99.90;;;;;;5059537;28;20226;-77
2023/12/05 01:13:52;;;;;;;7.25;6.75;;;0.00;99.90;;;;;;5060118;28;20218;-75
2023/12/05 01:16:19;;;;;;;8.15;7.45;;;0.00;99.90;;;;;;5055554;28;20617;-76
2023/12/05 01:18:47;;;;;;;7.30;6.70;;;-0.10;99.90;;;;;;5056182;28;20573;-76
2023/12/05 01:21:15;;;;;;;7.10;6.55;;;-0.10;99.90;;;;;;5058824;28;20229;-76
2023/12/05 01:23:42;;;;;;;7.32;6.72;;;-0.20;99.90;;;;;;5061887;28;20238;-75
2023/12/05 01:26:09;;;;;;;7.03;6.50;;;-0.30;99.90;;;;;;5061394;28;20206;-76
2023/12/05 01:28:36;;;;;;;7.70;7.15;;;-0.30;99.90;;;;;;5061107;28;20588;-77
2023/12/05 01:31:03;;;;;;;7.07;6.57;;;-0.30;99.90;;;;;;5060159;28;20203;-77
2023/12/05 01:33:30;;;;;;;6.85;6.35;;;-0.30;99.90;;;;;;5061668;28;20233;-76
2023/12/05 01:35:57;;;;;;;7.38;6.78;;;-0.40;99.90;;;;;;5063052;28;20747;-77
2023/12/05 01:38:26;;;;;;;9.15;8.38;;;-0.40;99.90;;;;;;5063817;28;20672;-76
2023/12/05 01:40:53;;;;;;;7.97;7.38;;;-0.40;99.90;;;;;;5062975;28;20198;-75
2023/12/05 01:43:20;;;;;;;7.60;7.00;;;-0.40;99.90;;;;;;5064131;28;20225;-76
2023/12/05 01:45:47;;;;;;;8.68;7.95;;;-0.50;99.90;;;;;;5063461;28;20617;-76
2023/12/05 01:48:14;;;;;;;8.43;7.72;;;-0.60;99.90;;;;;;5063751;28;20621;-76
2023/12/05 01:50:43;;;;;;;8.27;7.68;;;-0.60;99.90;;;;;;5065189;28;20205;-76
2023/12/05 01:53:11;;;;;;;9.27;8.52;;;-0.60;99.90;;;;;;5061682;28;20275;-78
2023/12/05 01:55:39;;;;;;;8.25;7.57;;;-0.60;99.90;;;;;;5063693;28;20684;-76
2023/12/05 01:58:08;;;;;;;7.88;7.28;;;-0.60;99.90;;;;;;5063306;28;20229;-76
2023/12/05 02:00:38;;;;;;;7.60;7.10;;;-0.60;99.90;;;;;;5063373;28;20210;-77
2023/12/05 02:03:05;;;;;;;6.80;6.30;;;-0.50;99.90;;;;;;5064734;28;20229;-75
2023/12/05 02:05:32;;;;;;;7.22;6.72;;;-0.40;99.90;;;;;;5062215;28;20205;-75
2023/12/05 02:08:00;;;;;;;6.90;6.40;;;-0.30;99.90;;;;;;5061348;28;20284;-76
2023/12/05 02:10:27;;;;;;;7.07;6.57;;;-0.30;99.90;;;;;;5066591;28;20684;-76
2023/12/05 02:12:55;;;;;;;7.47;6.97;;;-0.20;99.90;;;;;;5061411;28;20226;-76
2023/12/05 02:15:22;;;;;;;7.28;6.78;;;-0.10;99.90;;;;;;5069533;28;20198;-76
2023/12/05 02:18:06;;;;;;;7.88;7.28;;;-0.10;99.90;;;;;;5068381;28;20242;-76
2023/12/05 02:20:41;;;;;;;6.70;6.20;;;-0.10;99.90;;;;;;5069846;28;20202;-77
2023/12/05 02:23:35;;;;;;;6.57;6.07;;;-0.10;99.90;;;;;;5068349;28;20238;-77
2023/12/05 02:26:10;;;;;;;7.05;6.55;;;-0.10;99.90;;;;;;5073367;28;20530;-78
2023/12/05 02:28:39;;;;;;;6.70;6.20;;;0.00;99.90;;;;;;5068859;28;20208;-76
2023/12/05 02:31:07;;;;;;;7.75;7.05;;;0.00;99.90;;;;;;5067268;28;20213;-77
2023/12/05 02:33:35;;;;;;;7.30;6.80;;;0.10;99.90;;;;;;5062452;28;20215;-76
2023/12/05 02:36:15;;;;;;;7.15;6.65;;;0.10;99.90;;;;;;5060614;28;20237;-76
2023/12/05 02:39:00;;;;;;;6.82;6.32;;;0.10;99.90;;;;;;5059826;28;20304;-76
2023/12/05 02:41:31;;;;;;;6.82;6.43;;;0.10;99.90;;;;;;5062547;28;20241;-76
2023/12/05 02:44:06;;;;;;;6.40;5.95;;;0.10;99.90;;;;;;5060874;28;20214;-77
2023/12/05 02:46:35;;;;;;;7.15;6.65;;;0.20;99.90;;;;;;5061762;28;20283;-75
2023/12/05 02:49:04;;;;;;;7.03;6.53;;;0.20;99.90;;;;;;5062056;28;20206;-75
2023/12/05 02:51:31;;;;;;;6.97;6.45;;;0.30;99.90;;;;;;5059744;28;20222;-76
2023/12/05 02:54:01;;;;;;;7.05;6.45;;;0.30;99.90;;;;;;5061225;28;20214;-76
2023/12/05 02:56:29;;;;;;;7.13;6.63;;;0.30;99.90;;;;;;5060791;28;20592;-76
2023/12/05 02:58:56;;;;;;;6.82;6.32;;;0.20;99.90;;;;;;5058206;28;20257;-76
2023/12/05 03:01:25;;;;;;;6.72;6.22;;;0.20;99.90;;;;;;5059789;28;20731;-76
2023/12/05 03:03:52;;;;;;;6.35;5.95;;;0.20;99.90;;;;;;5059673;28;20214;-75
2023/12/05 03:06:19;;;;;;;7.57;6.97;;;0.10;99.90;;;;;;5059220;28;20739;-75
2023/12/05 03:08:46;;;;;;;7.30;6.80;;;0.10;99.90;;;;;;5059407;28;20223;-77
2023/12/05 03:11:13;;;;;;;6.70;6.30;;;0.10;99.90;;;;;;5058146;28;20222;-77
2023/12/05 03:13:40;;;;;;;6.63;6.20;;;0.10;99.90;;;;;;5054929;28;20641;-77
2023/12/05 03:16:09;;;;;;;7.70;7.00;;;0.10;99.90;;;;;;5060339;28;20229;-75
2023/12/05 03:18:37;;;;;;;7.20;6.65;;;0.10;99.90;;;;;;5062578;28;20194;-76
2023/12/05 03:21:05;;;;;;;7.47;6.88;;;0.10;99.90;;;;;;5058416;28;20202;-76
2023/12/05 03:23:32;;;;;;;6.53;6.03;;;0.10;99.90;;;;;;5061942;28;20265;-77
2023/12/05 03:25:59;;;;;;;6.53;6.13;;;0.00;99.90;;;;;;5058186;28;20215;-77
2023/12/05 03:28:26;;;;;;;6.63;6.07;;;0.00;99.90;;;;;;5058878;28;20240;-77
2023/12/05 03:30:53;;;;;;;7.13;6.60;;;-0.20;99.90;;;;;;5056626;28;20684;-75
2023/12/05 03:33:21;;;;;;;6.55;6.05;;;-0.30;99.90;;;;;;5061184;28;20226;-77
2023/12/05 03:35:49;;;;;;;7.40;6.80;;;-0.40;99.90;;;;;;5058577;28;20198;-76
2023/12/05 03:38:16;;;;;;;8.18;7.47;;;-0.40;99.90;;;;;;5056429;28;20225;-75
2023/12/05 03:40:43;;;;;;;8.13;7.18;;;-0.40;99.90;;;;;;5057786;28;20205;-75
2023/12/05 03:43:10;;;;;;;7.38;6.88;;;-0.40;99.90;;;;;;5058192;28;20245;-76
2023/12/05 03:45:37;;;;;;;7.50;6.80;;;-0.40;99.90;;;;;;5056582;28;20194;-77
2023/12/05 03:48:04;;;;;;;8.88;8.10;;;-0.40;99.90;;;;;;5058216;28;20229;-75
2023/12/05 03:50:31;;;;;;;7.57;6.90;;;-0.40;99.90;;;;;;5055279;28;20206;-77
2023/12/05 03:53:00;;;;;;;6.97;6.47;;;-0.40;99.90;;;;;;5057423;28;20230;-78
2023/12/05 03:55:27;;;;;;;6.55;6.03;;;-0.30;99.90;;;;;;5055058;28;20207;-77
2023/12/05 03:57:54;;;;;;;6.75;6.22;;;-0.20;99.90;;;;;;5056515;28;20222;-77
2023/12/05 04:00:21;;;;;;;6.45;6.03;;;-0.10;99.90;;;;;;5056568;28;20199;-75
2023/12/05 04:02:48;;;;;;;7.05;6.55;;;-0.10;99.90;;;;;;5054311;28;20314;-77
2023/12/05 04:05:16;;;;;;;6.85;6.35;;;0.00;99.90;;;;;;5057256;28;20252;-75
2023/12/05 04:07:43;;;;;;;7.18;6.60;;;-0.10;99.90;;;;;;5056123;28;20760;-75
2023/12/05 04:10:11;;;;;;;6.18;5.75;;;-0.10;99.90;;;;;;5055971;28;20213;-76
2023/12/05 04:12:40;;;;;;;7.40;6.72;;;0.00;99.90;;;;;;5054300;28;20237;-77
2023/12/05 04:15:08;;;;;;;7.03;6.43;;;0.00;99.90;;;;;;5059011;28;20745;-76
2023/12/05 04:17:36;;;;;;;6.85;6.35;;;0.00;99.90;;;;;;5056553;28;20928;-75
2023/12/05 04:20:07;;;;;;;7.15;6.55;;;0.00;99.90;;;;;;5057293;28;20195;-77
2023/12/05 04:22:34;;;;;;;7.05;6.55;;;0.00;99.90;;;;;;5059698;28;20222;-76
2023/12/05 04:25:01;;;;;;;6.50;6.10;;;0.00;99.90;;;;;;5058970;28;20888;-78
2023/12/05 04:27:29;;;;;;;6.45;6.05;;;0.10;99.90;;;;;;5054616;28;20233;-76
2023/12/05 04:29:56;;;;;;;6.93;6.32;;;0.10;99.90;;;;;;5056229;28;20202;-75
2023/12/05 04:32:23;;;;;;;6.40;5.90;;;0.10;99.90;;;;;;5057510;28;20221;-77
2023/12/05 04:34:52;;;;;;;7.10;6.50;;;0.10;99.90;;;;;;5056106;28;20213;-77
2023/12/05 04:37:19;;;;;;;6.25;5.85;;;0.10;99.90;;;;;;5057016;28;20218;-76
2023/12/05 04:39:46;;;;;;;6.68;6.22;;;0.20;99.90;;;;;;5059170;28;20194;-75
2023/12/05 04:42:13;;;;;;;7.00;6.50;;;0.10;99.90;;;;;;5056630;28;20753;-76
2023/12/05 04:44:42;;;;;;;6.45;6.05;;;0.20;99.90;;;;;;5056208;28;20221;-76
2023/12/05 04:47:10;;;;;;;6.88;6.30;;;0.20;99.90;;;;;;5054852;28;20215;-76
2023/12/05 04:49:37;;;;;;;7.05;6.55;;;0.20;99.90;;;;;;5055385;28;20595;-75
2023/12/05 04:52:05;;;;;;;6.68;6.18;;;0.20;99.90;;;;;;5055051;28;20217;-76
2023/12/05 04:54:32;;;;;;;6.78;6.28;;;0.20;99.90;;;;;;5055370;28;20210;-75
2023/12/05 04:56:59;;;;;;;6.30;5.88;;;0.20;99.90;;;;;;5053467;28;20227;-76
2023/12/05 04:59:26;;;;;;;7.00;6.45;;;0.20;99.90;;;;;;5057433;28;20198;-76
2023/12/05 05:01:54;;;;;;;6.90;6.40;;;0.30;99.90;;;;;;5057475;28;20216;-77
2023/12/05 05:04:21;;;;;;;6.07;5.68;;;0.20;99.90;;;;;;5059014;28;20764;-76
2023/12/05 05:06:48;;;;;;;6.50;6.05;;;0.20;99.90;;;;;;5059317;28;20276;-76
2023/12/05 05:09:15;;;;;;;5.90;5.50;;;0.10;99.90;;;;;;5058309;28;20750;-77
2023/12/05 05:11:43;;;;;;;6.97;6.28;;;0.10;99.90;;;;;;5057464;28;20279;-76
2023/12/05 05:14:10;;;;;;;6.47;5.97;;;0.20;99.90;;;;;;5058945;28;20222;-76
2023/12/05 05:16:37;;;;;;;6.90;6.30;;;0.10;99.90;;;;;;5055450;28;20229;-75
2023/12/05 05:19:05;;;;;;;7.72;7.13;;;0.10;99.90;;;;;;5057109;28;20293;-76
2023/12/05 05:21:32;;;;;;;7.30;6.70;;;0.10;99.90;;;;;;5053991;28;20223;-77
2023/12/05 05:23:59;;;;;;;7.97;7.28;;;0.00;99.90;;;;;;5055944;28;20219;-80
2023/12/05 05:26:26;;;;;;;7.40;6.78;;;0.10;99.90;;;;;;5059462;28;20605;-75
2023/12/05 05:28:53;;;;;;;8.32;7.63;;;0.00;99.90;;;;;;5058420;28;20712;-77
2023/12/05 05:31:20;;;;;;;7.57;6.97;;;0.00;99.90;;;;;;5057759;28;20230;-76
2023/12/05 05:33:47;;;;;;;8.05;7.35;;;0.00;99.90;;;;;;5057905;28;21093;-76
2023/12/05 05:36:17;;;;;;;7.57;7.07;;;0.00;99.90;;;;;;5058000;28;20234;-76
2023/12/05 05:38:44;;;;;;;8.82;7.05;;;-0.10;99.90;;;;;;5059138;28;20668;-76
2023/12/05 05:41:11;;;;;;;8.07;7.45;;;-0.20;99.90;;;;;;5059689;28;20213;-76
2023/12/05 05:43:38;;;;;;;8.57;7.88;;;-0.30;99.90;;;;;;5060269;28;20229;-78
2023/12/05 05:46:06;;;;;;;8.77;8.07;;;-0.30;99.90;;;;;;5056585;28;20190;-76
2023/12/05 05:48:33;;;;;;;8.35;7.55;;;-0.40;99.90;;;;;;5058419;28;20294;-77
2023/12/05 05:51:00;;;;;;;7.55;6.97;;;-0.40;99.90;;;;;;5055247;28;20203;-77
2023/12/05 05:53:29;;;;;;;7.18;6.68;;;-0.40;99.90;;;;;;5060843;28;20931;-76
2023/12/05 05:55:56;;;;;;;7.63;7.10;;;-0.30;99.90;;;;;;5053707;28;20890;-76
2023/12/05 05:58:23;;;;;;;7.05;6.55;;;-0.30;99.90;;;;;;5056559;28;20646;-76
2023/12/05 06:00:50;;;;;;;6.75;6.25;;;-0.20;99.90;;;;;;5056207;28;20211;-75
2023/12/05 06:03:17;;;;;;;6.97;6.47;;;-0.10;99.90;;;;;;5057747;28;20218;-76
2023/12/05 06:05:44;;;;;;;7.82;7.22;;;0.00;99.90;;;;;;5058178;28;20233;-75
2023/12/05 06:08:11;;;;;;;7.30;6.60;;;0.00;99.90;;;;;;5061201;28;20712;-76
2023/12/05 06:10:40;;;;;;;7.43;6.93;;;0.10;99.90;;;;;;5061803;28;20207;-74
2023/12/05 06:13:07;;;;;;;7.75;7.15;;;0.10;99.90;;;;;;5057945;28;20222;-77
2023/12/05 06:15:34;;;;;;;7.35;6.85;;;0.10;99.90;;;;;;5065555;28;20195;-77
2023/12/05 06:18:01;;;;;;;7.15;6.65;;;0.10;99.90;;;;;;5064717;28;20218;-76
2023/12/05 06:20:28;;;;;;;7.13;6.63;;;0.10;99.90;;;;;;5062779;28;20191;-77
2023/12/05 06:22:55;;;;;;;7.30;6.80;;;0.10;99.90;;;;;;5059133;28;20226;-76
2023/12/05 06:25:22;;;;;;;7.68;6.97;;;0.10;99.90;;;;;;5062971;28;20217;-76
2023/12/05 06:27:50;;;;;;;7.05;6.50;;;0.10;99.90;;;;;;5062172;28;20237;-76
2023/12/05 06:30:17;;;;;;;7.93;7.32;;;0.10;99.90;;;;;;5057269;28;20198;-76
2023/12/05 06:32:44;;;;;;;7.25;6.70;;;0.20;99.90;;;;;;5063716;28;20234;-78
2023/12/05 06:35:11;;;;;;;7.90;7.20;;;0.20;99.90;;;;;;5064723;28;20589;-77
2023/12/05 06:37:38;;;;;;;8.88;8.07;;;0.20;99.90;;;;;;5063750;28;20233;-77
2023/12/05 06:40:07;;;;;;;8.48;7.70;;;0.20;99.90;;;;;;5062096;28;20209;-76
2023/12/05 06:42:34;;;;;;;7.88;7.28;;;0.20;99.90;;;;;;5061721;28;20218;-76
2023/12/05 06:45:03;;;;;;;7.72;6.97;;;0.20;99.90;;;;;;5071009;28;20221;-76
2023/12/05 06:47:31;;;;;;;7.05;6.53;;;0.20;99.90;;;;;;5066232;28;20226;-75
2023/12/05 06:50:01;;;;;;;8.10;7.40;;;0.20;99.90;;;;;;5060896;28;20672;-75
2023/12/05 06:52:28;;;;;;;7.30;6.78;;;0.20;99.90;;;;;;5061734;28;20218;-76
2023/12/05 06:54:55;;;;;;;7.47;6.88;;;0.20;99.90;;;;;;5062163;28;20202;-76
2023/12/05 06:57:22;;;;;;;7.38;6.78;;;0.20;99.90;;;;;;5056065;28;20223;-76
2023/12/05 06:59:49;;;;;;;6.70;6.20;;;0.20;99.90;;;;;;5063856;28;20731;-75
2023/12/05 07:02:18;;;;;;;7.63;7.03;;;0.20;99.90;;;;;;5062504;28;20229;-76
2023/12/05 07:04:45;;;;;;;7.53;6.93;;;0.20;99.90;;;;;;5067076;28;20221;-75
2023/12/05 07:07:12;;;;;;;6.95;6.45;;;0.10;99.90;;;;;;5058806;28;20371;-75
2023/12/05 07:09:39;;;;;;;6.38;5.88;;;0.10;99.90;;;;;;5057700;28;20210;-76
2023/12/05 07:12:07;;;;;;;7.50;7.00;;;0.10;99.90;;;;;;5058862;28;20218;-75
2023/12/05 07:14:35;;;;;;;7.53;6.93;;;0.10;99.90;;;;;;5063572;28;20206;-76
2023/12/05 07:17:03;;;;;;;6.78;6.28;;;0.00;99.90;;;;;;5063842;28;20243;-77
2023/12/05 07:19:31;;;;;;;7.97;7.28;;;0.10;99.90;;;;;;5059052;28;20234;-77
2023/12/05 07:21:58;;;;;;;8.07;7.40;;;0.10;99.90;;;;;;5060500;28;20719;-75
2023/12/05 07:24:25;;;;;;;10.15;9.25;;;0.20;99.90;;;;;;5060749;28;20222;-76
2023/12/05 07:26:52;;;;;;;11.82;10.68;;;0.20;99.90;;;;;;5060628;28;20230;-77
2023/12/05 07:29:19;;;;;;;12.10;10.90;;;0.30;99.90;;;;;;5059809;28;20214;-75
2023/12/05 07:31:47;;;;;;;10.63;9.63;;;0.30;99.90;;;;;;5058976;28;20708;-78
2023/12/05 07:34:14;;;;;;;10.02;8.98;;;0.30;99.90;;;;;;5057947;28;20218;-76
2023/12/05 07:36:43;;;;;;;9.38;8.40;;;0.30;99.90;;;;;;5057590;28;20310;-77
2023/12/05 07:39:12;;;;;;;8.77;7.97;;;0.30;99.90;;;;;;5060238;28;20320;-76
2023/12/05 07:41:40;;;;;;;9.80;8.90;;;0.20;99.90;;;;;;5060246;28;20291;-76
2023/12/05 07:44:07;;;;;;;8.93;8.23;;;0.20;99.90;;;;;;5059754;28;20222;-76
2023/12/05 07:46:34;;;;;;;8.48;7.78;;;0.20;99.90;;;;;;5061243;28;20258;-76
2023/12/05 07:49:03;;;;;;;7.88;7.18;;;0.20;99.90;;;;;;5058303;28;20206;-76
2023/12/05 07:51:30;;;;;;;7.65;7.05;;;0.20;99.90;;;;;;5060142;28;21205;-76
2023/12/05 07:53:58;;;;;;;7.80;7.20;;;0.30;99.90;;;;;;5059571;28;20230;-77
2023/12/05 07:56:25;;;;;;;7.97;7.38;;;0.40;99.90;;;;;;5062141;28;20234;-76
2023/12/05 07:58:52;;;;;;;7.22;6.72;;;0.50;99.90;;;;;;5060112;28;20681;-77
2023/12/05 08:01:19;;;;;;;7.07;6.57;;;0.60;99.90;;;;;;5061367;28;20229;-76
2023/12/05 08:03:46;;;;;;;7.22;6.63;;;0.60;99.90;;;;;;5062148;28;20228;-78
2023/12/05 08:06:14;;;;;;;7.30;6.80;;;0.70;99.90;;;;;;5061899;28;20550;-76
2023/12/05 08:08:41;;;;;;;8.40;7.75;;;0.80;99.90;;;;;;5061678;28;20661;-75
2023/12/05 08:11:11;;;;;;;7.60;7.00;;;0.80;99.90;;;;;;5060834;28;20202;-76
2023/12/05 08:13:38;;;;;;;7.40;6.80;;;0.80;99.90;;;;;;5054480;28;20226;-77
2023/12/05 08:16:06;;;;;;;8.30;7.63;;;0.80;99.90;;;;;;5063256;28;20197;-76
2023/12/05 08:18:33;;;;;;;6.95;6.45;;;0.80;99.90;;;;;;5062663;28;20197;-76
2023/12/05 08:21:00;;;;;;;8.23;7.63;;;0.80;99.90;;;;;;5059141;28;20214;-76
2023/12/05 08:23:27;;;;;;;8.20;7.50;;;0.80;99.90;;;;;;5059773;28;20230;-75
2023/12/05 08:25:54;;;;;;;7.40;6.80;;;0.90;99.90;;;;;;5061717;28;20214;-77
2023/12/05 08:28:23;;;;;;;7.53;6.93;;;0.90;99.90;;;;;;5062574;28;20198;-76
2023/12/05 08:30:50;;;;;;;8.35;7.55;;;0.90;99.90;;;;;;5062998;28;20214;-76
2023/12/05 08:33:17;;;;;;;7.65;7.05;;;0.90;99.90;;;;;;5060547;28;20218;-75
2023/12/05 08:35:45;;;;;;;8.18;7.57;;;0.90;99.90;;;;;;5060111;28;20351;-76
2023/12/05 08:38:14;;;;;;;7.45;6.85;;;0.90;99.90;;;;;;5059265;28;20213;-77
2023/12/05 08:40:41;;;;;;;7.78;7.07;;;0.90;99.90;;;;;;5056664;28;20209;-76
2023/12/05 08:43:08;;;;;;;8.30;7.60;;;0.90;99.90;;;;;;5053569;28;20641;-79
2023/12/05 08:45:36;;;;;;;8.10;7.40;;;0.90;99.90;;;;;;5061497;28;20221;-76
2023/12/05 08:48:03;;;;;;;8.90;8.10;;;0.90;99.90;;;;;;5057946;28;20272;-76
2023/12/05 08:50:30;;;;;;;8.48;7.78;;;0.90;99.90;;;;;;5062705;28;20191;-75
2023/12/05 08:52:57;;;;;;;7.90;7.30;;;0.90;99.90;;;;;;5060027;28;20751;-75
2023/12/05 08:55:24;;;;;;;8.27;7.57;;;0.90;99.90;;;;;;5060003;28;20209;-77
2023/12/05 08:57:51;;;;;;;10.20;7.22;;;1.00;99.90;;;;;;5059733;28;20195;-76
2023/12/05 09:00:19;;;;;;;8.18;7.47;;;1.00;99.90;;;;;;5058344;28;20617;-78
2023/12/05 09:02:48;;;;;;;8.98;8.20;;;1.00;99.90;;;;;;5059413;28;20229;-77
2023/12/05 09:05:15;;;;;;;7.07;6.57;;;1.10;99.90;;;;;;5056811;28;20214;-75
2023/12/05 09:07:42;;;;;;;8.40;7.70;;;1.10;99.90;;;;;;5055359;28;20668;-76
2023/12/05 09:10:09;;;;;;;9.60;8.60;;;1.10;99.90;;;;;;5057421;28;20201;-76
2023/12/05 09:12:36;;;;;;;9.27;8.35;;;1.10;99.90;;;;;;5053529;28;20631;-76
2023/12/05 09:15:03;;;;;;;9.55;8.68;;;1.10;99.90;;;;;;5050434;28;20226;-75
2023/12/05 09:17:31;;;;;;;9.27;8.38;;;1.10;99.90;;;;;;5049230;28;20206;-77
2023/12/05 09:20:00;;;;;;;7.88;7.25;;;1.00;99.90;;;;;;5052955;28;20739;-77
2023/12/05 09:22:27;;;;;;;8.48;7.68;;;1.00;99.90;;;;;;5052473;28;20225;-76
2023/12/05 09:24:55;;;;;;;8.07;7.38;;;1.00;99.90;;;;;;5050976;28;20226;-76
2023/12/05 09:27:22;;;;;;;7.97;7.22;;;1.10;99.90;;;;;;5050616;28;20726;-76
2023/12/05 09:29:49;;;;;;;9.05;8.00;;;1.20;99.90;;;;;;5055730;28;20218;-77
2023/12/05 09:32:16;;;;;;;8.43;7.72;;;1.30;99.90;;;;;;5050940;28;20739;-76
2023/12/05 09:34:43;;;;;;;8.95;8.07;;;1.30;99.90;;;;;;5047974;28;20942;-75
2023/12/05 09:37:12;;;;;;;8.68;7.82;;;1.30;99.90;;;;;;5048389;28;20212;-77
2023/12/05 09:39:39;;;;;;;8.80;8.10;;;1.30;99.90;;;;;;5051506;28;20360;-77
2023/12/05 09:42:10;;;;;;;8.98;8.25;;;1.20;99.90;;;;;;5045972;28;20195;-76
2023/12/05 09:44:39;;;;;;;9.18;8.38;;;1.20;99.90;;;;;;5057706;28;20276;-76
2023/12/05 09:47:10;;;;;;;15.07;13.68;;;1.30;99.90;;;;;;5062275;28;20679;-76
2023/12/05 09:49:40;;;;;;;10.45;9.48;;;1.30;99.90;;;;;;5056240;28;20222;-77
2023/12/05 09:52:08;;;;;;;10.00;9.20;;;1.30;99.90;;;;;;5061107;28;20206;-77
2023/12/05 09:54:37;;;;;;;9.85;8.95;;;1.30;99.90;;;;;;5066478;28;20214;-77
2023/12/05 09:57:05;;;;;;;8.93;8.13;;;1.30;99.90;;;;;;5068901;28;20679;-78
2023/12/05 09:59:32;;;;;;;8.60;7.90;;;1.40;99.90;;;;;;5066990;28;20218;-75
2023/12/05 10:02:02;;;;;;;8.60;7.90;;;1.40;99.90;;;;;;5064606;28;20622;-76
2023/12/05 10:04:29;;;;;;;8.02;7.28;;;1.50;99.90;;;;;;5061560;28;20226;-76
2023/12/05 10:06:59;;;;;;;8.88;8.07;;;1.50;99.90;;;;;;5071558;28;20225;-77
2023/12/05 10:09:28;;;;;;;7.97;7.38;;;1.50;99.90;;;;;;5071558;28;20218;-78
2023/12/05 10:11:57;;;;;;;7.80;7.20;;;1.50;99.90;;;;;;5071133;28;20209;-77
2023/12/05 10:14:24;;;;;;;8.05;7.35;;;1.60;99.90;;;;;;5057612;28;20604;-78
2023/12/05 10:16:53;;;;;;;7.95;7.28;;;1.60;99.90;;;;;;5061622;28;20187;-79
2023/12/05 10:19:22;;;;;;;8.88;8.07;;;1.60;99.90;;;;;;5073511;28;20622;-76
2023/12/05 10:21:51;;;;;;;9.23;8.35;;;1.60;99.90;;;;;;5074351;28;20252;-77
2023/12/05 10:24:18;;;;;;;8.38;7.68;;;1.70;99.90;;;;;;5057029;28;20237;-76
2023/12/05 10:26:46;;;;;;;9.77;8.77;;;1.70;99.90;;;;;;5061868;28;20215;-77
2023/12/05 10:29:15;;;;;;;9.18;8.38;;;1.70;99.90;;;;;;5062726;28;20301;-76
2023/12/05 10:31:43;;;;;;;10.45;8.82;;;1.80;99.90;;;;;;5065058;28;20202;-77
2023/12/05 10:34:10;;;;;;;10.27;9.45;;;1.80;99.90;;;;;;5063461;28;20230;-77
2023/12/05 10:36:37;;;;;;;9.13;8.35;;;1.90;99.90;;;;;;5060047;28;20202;-77
2023/12/05 10:39:05;;;;;;;10.48;9.55;;;2.00;99.90;;;;;;5060316;28;20221;-76
2023/12/05 10:41:32;;;;;;;9.85;8.95;;;2.00;99.90;;;;;;5064437;28;20700;-76
2023/12/05 10:44:01;;;;;;;9.32;8.43;;;2.00;99.90;;;;;;5061287;28;20237;-78
2023/12/05 10:46:30;;;;;;;9.25;8.45;;;1.90;99.90;;;;;;5061077;28;20222;-77
2023/12/05 10:48:57;;;;;;;10.00;9.02;;;1.90;99.90;;;;;;5047474;28;20783;-76
2023/12/05 10:51:26;;;;;;;9.30;8.43;;;1.90;99.90;;;;;;5037119;28;20678;-77
2023/12/05 10:53:55;;;;;;;9.27;8.48;;;1.90;99.90;;;;;;5041855;28;20747;-75
2023/12/05 10:56:23;;;;;;;9.32;8.48;;;1.90;99.90;;;;;;5035162;28;20196;-77
2023/12/05 10:58:54;;;;;;;8.90;8.20;;;1.90;99.90;;;;;;5034722;28;20302;-76
2023/12/05 11:01:22;;;;;;;7.97;7.45;;;1.90;99.90;;;;;;5034523;28;20265;-77
2023/12/05 11:03:52;;;;;;;8.27;7.53;;;1.90;99.90;;;;;;5040097;28;20326;-76
2023/12/05 11:06:19;;;;;;;8.02;7.32;;;1.90;99.90;;;;;;5038235;28;20250;-77
2023/12/05 11:08:46;;;;;;;8.75;8.05;;;2.00;99.90;;;;;;5039389;28;20232;-76
2023/12/05 11:11:14;;;;;;;9.02;8.23;;;2.00;99.90;;;;;;5037354;28;20206;-78
2023/12/05 11:13:43;;;;;;;8.10;7.40;;;2.00;99.90;;;;;;5038779;28;20336;-77
2023/12/05 11:16:16;;;;;;;7.72;7.13;;;2.00;99.90;;;;;;5036917;28;20272;-76
2023/12/05 11:18:45;;;;;;;7.50;6.53;;;2.00;99.90;;;;;;5037887;28;20318;-77
2023/12/05 11:21:31;;;;;;;7.60;6.95;;;2.00;99.90;;;;;;5036352;28;20796;-76
2023/12/05 11:24:31;;;;;;;7.07;6.50;;;2.10;99.90;;;;;;5035432;28;20782;-76
2023/12/05 11:27:21;;;;;;;7.60;6.97;;;2.10;99.90;;;;;;5034349;28;20230;-75
2023/12/05 11:30:30;;;;;;;8.23;7.53;;;2.20;99.90;;;;;;5051399;28;20225;-77
2023/12/05 11:33:07;;;;;;;7.68;6.95;;;2.30;99.90;;;;;;4969582;28;20316;-75
2023/12/05 11:35:48;;;;;;;7.57;6.88;;;2.30;99.90;;;;;;5045368;28;20201;-75
2023/12/05 11:38:19;;;;;;;7.45;6.85;;;2.40;99.90;;;;;;5054353;28;20256;-75
2023/12/05 11:41:10;;;;;;;7.93;7.22;;;2.50;99.90;;;;;;5049275;28;20939;-75
2023/12/05 11:43:38;;;;;;;7.43;6.82;;;2.60;99.90;;;;;;5052469;28;20237;-75
2023/12/05 11:46:05;;;;;;;8.32;7.22;;;2.60;99.90;;;;;;5054991;28;20207;-75
2023/12/05 11:48:33;;;;;;;11.27;10.18;;;2.60;99.90;;;;;;5048294;28;20233;-74
2023/12/05 11:51:01;;;;;;;7.97;7.28;;;2.60;99.90;;;;;;5035081;28;20772;-78
2023/12/05 11:53:30;;;;;;;8.70;7.90;;;2.60;99.90;;;;;;5042545;28;20229;-75
2023/12/05 11:55:58;;;;;;;7.75;7.07;;;2.60;99.90;;;;;;5055331;28;20210;-76
2023/12/05 11:58:29;;;;;;;7.32;6.47;;;2.60;99.90;;;;;;5048626;28;20231;-75
2023/12/05 12:01:02;;;;;;;7.05;6.45;;;2.50;99.90;;;;;;5033126;28;20961;-75
2023/12/05 12:03:44;;;;;;;6.47;5.97;;;2.50;99.90;;;;;;5042088;28;20325;-75
2023/12/05 12:06:11;;;;;;;6.88;6.18;;;2.50;99.90;;;;;;5054279;28;20259;-75
2023/12/05 12:08:40;;;;;;;7.35;6.72;;;2.50;99.90;;;;;;5051302;28;20233;-76
2023/12/05 12:11:07;;;;;;;8.63;7.80;;;2.60;99.90;;;;;;5053391;28;21401;-75
2023/12/05 12:13:35;;;;;;;7.50;6.82;;;2.50;99.90;;;;;;5047969;28;21042;-75
2023/12/05 12:16:02;;;;;;;8.23;7.50;;;2.50;99.90;;;;;;5052577;28;20222;-75
2023/12/05 12:18:30;;;;;;;7.78;7.18;;;2.50;99.90;;;;;;5052063;28;20218;-75
2023/12/05 12:20:59;;;;;;;8.20;7.50;;;2.50;99.90;;;;;;5053468;28;20360;-75
2023/12/05 12:23:26;;;;;;;7.22;6.63;;;2.60;99.90;;;;;;5052399;28;20223;-75
2023/12/05 12:26:00;;;;;;;8.20;7.50;;;2.60;99.90;;;;;;5052815;28;20251;-75
2023/12/05 12:28:28;;;;;;;8.15;7.35;;;2.60;99.90;;;;;;5049431;28;20266;-76
2023/12/05 12:30:56;;;;;;;9.00;8.10;;;2.60;99.90;;;;;;5050556;28;20199;-76
2023/12/05 12:33:28;;;;;;;8.65;7.85;;;2.70;99.90;;;;;;5051474;28;20229;-75
2023/12/05 12:35:56;;;;;;;7.88;7.07;;;2.70;99.90;;;;;;5050203;28;20198;-74
2023/12/05 12:38:24;;;;;;;9.35;8.45;;;2.70;99.90;;;;;;5050521;28;20305;-74
2023/12/05 12:40:52;;;;;;;9.52;8.60;;;2.70;99.90;;;;;;5049260;28;20206;-75
2023/12/05 12:43:22;;;;;;;8.82;7.93;;;2.70;99.90;;;;;;5053762;28;20257;-75
2023/12/05 12:45:49;;;;;;;10.57;9.65;;;2.70;99.90;;;;;;5054622;28;20214;-74
2023/12/05 12:48:17;;;;;;;10.50;9.40;;;2.70;99.90;;;;;;5052320;28;20219;-74
2023/12/05 12:50:44;;;;;;;9.20;8.40;;;2.70;99.90;;;;;;5052046;28;20202;-74
2023/12/05 12:53:11;;;;;;;10.93;9.85;;;2.70;99.90;;;;;;5054413;28;20226;-74
2023/12/05 12:55:40;;;;;;;18.40;9.75;;;2.70;99.90;;;;;;5057379;28;20575;-75
2023/12/05 12:58:07;;;;;;;10.50;9.50;;;2.70;99.90;;;;;;5053244;28;20234;-77
2023/12/05 13:00:40;;;;;;;10.25;9.27;;;2.60;99.90;;;;;;5062232;28;20567;-75